createdAt,value
2023-01-13T00:00:30.309Z,51.216198
2023-01-13T00:01:30.227Z,51.216206
2023-01-13T00:02:30.322Z,51.216167
2023-01-13T00:03:30.212Z,51.216042
2023-01-13T00:04:30.245Z,51.216099
2023-01-13T00:05:30.192Z,51.216087
2023-01-13T00:06:30.191Z,51.216080
2023-01-13T00:07:30.202Z,51.216228
2023-01-13T00:08:30.190Z,51.216282
2023-01-13T00:09:30.169Z,51.216137
2023-01-13T00:10:30.169Z,51.215931
2023-01-13T00:11:30.149Z,51.215946
2023-01-13T00:12:30.148Z,51.215958
2023-01-13T00:13:30.145Z,51.215660
2023-01-13T00:14:30.134Z,51.215816
2023-01-13T00:15:30.119Z,51.215927
2023-01-13T00:16:31.121Z,51.215961
2023-01-13T00:17:30.116Z,51.216084
2023-01-13T00:18:30.109Z,51.216129
2023-01-13T00:19:30.106Z,51.216145
2023-01-13T00:20:30.113Z,51.216137
2023-01-13T00:21:30.073Z,51.216160
2023-01-13T00:22:30.080Z,51.215874
2023-01-13T00:23:30.114Z,51.215958
2023-01-13T00:24:30.058Z,51.216084
2023-01-13T00:25:30.064Z,51.215912
2023-01-13T00:26:30.048Z,51.215984
2023-01-13T00:27:30.035Z,51.215965
2023-01-13T00:28:30.057Z,51.216019
2023-01-13T00:29:30.018Z,51.216019
2023-01-13T00:30:30.039Z,51.216095
2023-01-13T00:31:30.102Z,51.216175
2023-01-13T00:32:30.006Z,51.216080
2023-01-13T00:33:30.011Z,51.216236
2023-01-13T00:34:29.986Z,51.216080
2023-01-13T00:35:29.981Z,51.216019
2023-01-13T00:36:29.974Z,51.215954
2023-01-13T00:37:29.959Z,51.215954
2023-01-13T00:38:30.980Z,51.216022
2023-01-13T00:39:29.972Z,51.216015
2023-01-13T00:40:29.950Z,51.216030
2023-01-13T00:41:29.940Z,51.216103
2023-01-13T00:42:29.939Z,51.216042
2023-01-13T00:43:29.927Z,51.216076
2023-01-13T00:44:29.932Z,51.216087
2023-01-13T00:45:29.921Z,51.216061
2023-01-13T00:46:30.007Z,51.216084
2023-01-13T00:47:29.896Z,51.216072
2023-01-13T00:48:29.893Z,51.216034
2023-01-13T00:49:29.902Z,51.215950
2023-01-13T00:50:29.883Z,51.215912
2023-01-13T00:51:29.962Z,51.216141
2023-01-13T00:52:29.860Z,51.216053
2023-01-13T00:53:29.856Z,51.216118
2023-01-13T00:54:29.872Z,51.216228
2023-01-13T00:55:29.843Z,51.216030
2023-01-13T00:56:41.153Z,51.216053
2023-01-13T00:57:31.830Z,51.216068
2023-01-13T00:58:29.872Z,51.216080
2023-01-13T00:59:29.829Z,51.216084
2023-01-13T01:00:29.836Z,51.216053
2023-01-13T01:01:29.928Z,51.216038
2023-01-13T01:02:29.850Z,51.216068
2023-01-13T01:03:29.785Z,51.216152
2023-01-13T01:04:29.769Z,51.216232
2023-01-13T01:05:29.782Z,51.216221
2023-01-13T01:06:29.767Z,51.216110
2023-01-13T01:07:29.748Z,51.215961
2023-01-13T01:08:29.742Z,51.215992
2023-01-13T01:09:29.738Z,51.215885
2023-01-13T01:10:29.734Z,51.215740
2023-01-13T01:11:29.753Z,51.215767
2023-01-13T01:12:29.720Z,51.215885
2023-01-13T01:13:29.717Z,51.215885
2023-01-13T01:14:29.705Z,51.215961
2023-01-13T01:15:29.700Z,51.216045
2023-01-13T01:16:29.812Z,51.215946
2023-01-13T01:17:29.690Z,51.215965
2023-01-13T01:18:29.671Z,51.215446
2023-01-13T01:19:29.676Z,51.215717
2023-01-13T01:20:29.652Z,51.215534
2023-01-13T01:21:30.675Z,51.215710
2023-01-13T01:22:29.634Z,51.215996
2023-01-13T01:23:29.651Z,51.216145
2023-01-13T01:24:29.646Z,51.216145
2023-01-13T01:25:29.628Z,51.216179
2023-01-13T01:26:29.728Z,51.216228
2023-01-13T01:27:29.617Z,51.216171
2023-01-13T01:28:29.608Z,51.216084
2023-01-13T01:29:29.597Z,51.215981
2023-01-13T01:30:29.592Z,51.215897
2023-01-13T01:31:29.642Z,51.215900
2023-01-13T01:32:29.624Z,51.216011
2023-01-13T01:33:29.564Z,51.216072
2023-01-13T01:34:29.578Z,51.216103
2023-01-13T01:35:29.561Z,51.216148
2023-01-13T01:36:29.646Z,51.216148
2023-01-13T01:37:29.545Z,51.216118
2023-01-13T01:38:29.549Z,51.216106
2023-01-13T01:39:29.519Z,51.216129
2023-01-13T01:40:29.562Z,51.216053
2023-01-13T01:41:29.517Z,51.216072
2023-01-13T01:42:29.509Z,51.216099
2023-01-13T01:43:29.509Z,51.216351
2023-01-13T01:44:29.496Z,51.216175
2023-01-13T01:45:29.497Z,51.216034
2023-01-13T01:46:29.566Z,51.216061
2023-01-13T01:47:29.472Z,51.216106
2023-01-13T01:48:29.460Z,51.216206
2023-01-13T01:49:29.453Z,51.216057
2023-01-13T01:50:29.445Z,51.215950
2023-01-13T01:51:29.458Z,51.216026
2023-01-13T01:52:29.440Z,51.216038
2023-01-13T01:53:29.425Z,51.216110
2023-01-13T01:54:29.417Z,51.216103
2023-01-13T01:55:29.421Z,51.216145
2023-01-13T01:56:29.407Z,51.216156
2023-01-13T01:57:29.409Z,51.216240
2023-01-13T01:58:29.385Z,51.216213
2023-01-13T01:59:29.373Z,51.216179
2023-01-13T02:00:29.513Z,51.216351
2023-01-13T02:01:29.516Z,51.216148
2023-01-13T02:02:29.403Z,51.216118
2023-01-13T02:03:29.359Z,51.216312
2023-01-13T02:04:29.362Z,51.216190
2023-01-13T02:05:29.334Z,51.216137
2023-01-13T02:06:29.338Z,51.216114
2023-01-13T02:07:29.317Z,51.216137
2023-01-13T02:08:29.329Z,51.216160
2023-01-13T02:09:29.306Z,51.216057
2023-01-13T02:10:29.315Z,51.215942
2023-01-13T02:11:29.288Z,51.215916
2023-01-13T02:12:29.288Z,51.215965
2023-01-13T02:13:29.277Z,51.216049
2023-01-13T02:14:29.292Z,51.216145
2023-01-13T02:15:29.265Z,51.216106
2023-01-13T02:16:29.313Z,51.216084
2023-01-13T02:17:29.251Z,51.216095
2023-01-13T02:18:29.245Z,51.216190
2023-01-13T02:19:29.266Z,51.216248
2023-01-13T02:20:29.249Z,51.216213
2023-01-13T02:21:29.218Z,51.216114
2023-01-13T02:22:29.210Z,51.216084
2023-01-13T02:23:29.205Z,51.215973
2023-01-13T02:24:29.203Z,51.215904
2023-01-13T02:25:29.213Z,51.215992
2023-01-13T02:26:29.187Z,51.216244
2023-01-13T02:27:29.181Z,51.215958
2023-01-13T02:28:29.170Z,51.215950
2023-01-13T02:29:29.158Z,51.216331
2023-01-13T02:30:29.179Z,51.216293
2023-01-13T02:31:29.196Z,51.216427
2023-01-13T02:32:29.178Z,51.216167
2023-01-13T02:33:29.133Z,51.215973
2023-01-13T02:34:29.121Z,51.215832
2023-01-13T02:35:29.131Z,51.215870
2023-01-13T02:36:29.112Z,51.216053
2023-01-13T02:37:29.111Z,51.216053
2023-01-13T02:38:29.170Z,51.216148
2023-01-13T02:39:29.095Z,51.216343
2023-01-13T02:40:29.182Z,51.216187
2023-01-13T02:41:29.087Z,51.216137
2023-01-13T02:42:29.072Z,51.216076
2023-01-13T02:43:29.057Z,51.216286
2023-01-13T02:44:29.052Z,51.215961
2023-01-13T02:45:29.087Z,51.215820
2023-01-13T02:46:29.048Z,51.215969
2023-01-13T02:47:29.033Z,51.216045
2023-01-13T02:48:29.039Z,51.216026
2023-01-13T02:49:29.017Z,51.215981
2023-01-13T02:50:29.008Z,51.215767
2023-01-13T02:51:29.012Z,51.215565
2023-01-13T02:52:29.003Z,51.215546
2023-01-13T02:53:28.982Z,51.215626
2023-01-13T02:54:28.976Z,51.215839
2023-01-13T02:55:28.975Z,51.215965
2023-01-13T02:56:28.982Z,51.216068
2023-01-13T02:57:28.969Z,51.216061
2023-01-13T02:58:28.972Z,51.216045
2023-01-13T02:59:28.936Z,51.216064
2023-01-13T03:00:28.952Z,51.216110
2023-01-13T03:01:29.051Z,51.216084
2023-01-13T03:02:28.999Z,51.216080
2023-01-13T03:03:28.946Z,51.216076
2023-01-13T03:04:28.949Z,51.216187
2023-01-13T03:05:28.907Z,51.216061
2023-01-13T03:06:28.899Z,51.216125
2023-01-13T03:07:28.904Z,51.216099
2023-01-13T03:08:28.888Z,51.216099
2023-01-13T03:09:28.899Z,51.216076
2023-01-13T03:10:28.883Z,51.216110
2023-01-13T03:11:28.863Z,51.216099
2023-01-13T03:12:28.877Z,51.215992
2023-01-13T03:13:28.856Z,51.216156
2023-01-13T03:14:28.881Z,51.216335
2023-01-13T03:15:28.839Z,51.216492
2023-01-13T03:16:28.884Z,51.216370
2023-01-13T03:17:28.829Z,51.215969
2023-01-13T03:18:28.825Z,51.215961
2023-01-13T03:19:28.827Z,51.215832
2023-01-13T03:20:28.815Z,51.215931
2023-01-13T03:21:28.818Z,51.215370
2023-01-13T03:22:28.792Z,51.215813
2023-01-13T03:23:28.776Z,51.216011
2023-01-13T03:24:28.790Z,51.215786
2023-01-13T03:25:28.779Z,51.215805
2023-01-13T03:26:28.776Z,51.215965
2023-01-13T03:27:28.762Z,51.216034
2023-01-13T03:28:28.758Z,51.216019
2023-01-13T03:29:28.748Z,51.216122
2023-01-13T03:30:28.838Z,51.216076
2023-01-13T03:31:28.740Z,51.216106
2023-01-13T03:32:28.722Z,51.216087
2023-01-13T03:33:28.712Z,51.216125
2023-01-13T03:34:31.069Z,51.216125
2023-01-13T03:35:29.710Z,51.216175
2023-01-13T03:36:28.686Z,51.216022
2023-01-13T03:37:28.746Z,51.216061
2023-01-13T03:38:28.693Z,51.216156
2023-01-13T03:39:28.680Z,51.216064
2023-01-13T03:40:28.677Z,51.216042
2023-01-13T03:41:28.652Z,51.216198
2023-01-13T03:42:28.663Z,51.216114
2023-01-13T03:43:28.662Z,51.216110
2023-01-13T03:44:28.634Z,51.216217
2023-01-13T03:45:28.631Z,51.216171
2023-01-13T03:46:28.628Z,51.216110
2023-01-13T03:47:28.634Z,51.216106
2023-01-13T03:48:28.603Z,51.216068
2023-01-13T03:49:28.609Z,51.216053
2023-01-13T03:50:28.596Z,51.216080
2023-01-13T03:51:28.583Z,51.216034
2023-01-13T03:52:28.587Z,51.216145
2023-01-13T03:53:28.598Z,51.216164
2023-01-13T03:54:28.566Z,51.216225
2023-01-13T03:55:28.567Z,51.216141
2023-01-13T03:56:28.560Z,51.216084
2023-01-13T03:57:28.551Z,51.215946
2023-01-13T03:58:28.550Z,51.215958
2023-01-13T03:59:29.523Z,51.215992
2023-01-13T04:00:28.519Z,51.216167
2023-01-13T04:01:28.604Z,51.216194
2023-01-13T04:02:28.533Z,51.216175
2023-01-13T04:03:28.556Z,51.216179
2023-01-13T04:04:28.491Z,51.216145
2023-01-13T04:05:28.499Z,51.216095
2023-01-13T04:06:28.474Z,51.216095
2023-01-13T04:07:28.491Z,51.216122
2023-01-13T04:08:28.504Z,51.216145
2023-01-13T04:09:28.455Z,51.216206
2023-01-13T04:10:28.447Z,51.216148
2023-01-13T04:11:28.448Z,51.216190
2023-01-13T04:12:28.457Z,51.216175
2023-01-13T04:13:28.457Z,51.216167
2023-01-13T04:14:28.423Z,51.216240
2023-01-13T04:15:28.538Z,51.216244
2023-01-13T04:16:28.412Z,51.216133
2023-01-13T04:17:28.404Z,51.216110
2023-01-13T04:18:28.402Z,51.216091
2023-01-13T04:19:28.421Z,51.216034
2023-01-13T04:20:28.376Z,51.216084
2023-01-13T04:21:28.368Z,51.215950
2023-01-13T04:22:28.369Z,51.216084
2023-01-13T04:23:28.351Z,51.216206
2023-01-13T04:24:28.356Z,51.216259
2023-01-13T04:25:28.351Z,51.216114
2023-01-13T04:26:28.338Z,51.216103
2023-01-13T04:27:28.324Z,51.216087
2023-01-13T04:28:28.316Z,51.216038
2023-01-13T04:29:28.326Z,51.216099
2023-01-13T04:30:28.321Z,51.216122
2023-01-13T04:31:28.361Z,51.216015
2023-01-13T04:32:28.300Z,51.216022
2023-01-13T04:33:28.293Z,51.216129
2023-01-13T04:34:28.554Z,51.216175
2023-01-13T04:35:29.286Z,51.216133
2023-01-13T04:36:28.264Z,51.216179
2023-01-13T04:37:28.273Z,51.216141
2023-01-13T04:38:28.252Z,51.216095
2023-01-13T04:39:28.233Z,51.216167
2023-01-13T04:40:28.248Z,51.216190
2023-01-13T04:41:28.274Z,51.216053
2023-01-13T04:42:28.212Z,51.216057
2023-01-13T04:43:29.215Z,51.216202
2023-01-13T04:44:28.222Z,51.216148
2023-01-13T04:45:28.204Z,51.216087
2023-01-13T04:46:28.302Z,51.215836
2023-01-13T04:47:28.184Z,51.215855
2023-01-13T04:48:28.187Z,51.215973
2023-01-13T04:49:28.179Z,51.216003
2023-01-13T04:50:28.168Z,51.215996
2023-01-13T04:51:28.172Z,51.215981
2023-01-13T04:52:28.155Z,51.216080
2023-01-13T04:53:28.146Z,51.216106
2023-01-13T04:54:28.144Z,51.216129
2023-01-13T04:55:28.128Z,51.216110
2023-01-13T04:56:28.118Z,51.216000
2023-01-13T04:57:28.106Z,51.216080
2023-01-13T04:58:29.116Z,51.216072
2023-01-13T04:59:28.108Z,51.216064
2023-01-13T05:00:28.099Z,51.216091
2023-01-13T05:01:28.126Z,51.216106
2023-01-13T05:02:28.082Z,51.216137
2023-01-13T05:03:28.079Z,51.216167
2023-01-13T05:04:28.074Z,51.216125
2023-01-13T05:05:28.079Z,51.216011
2023-01-13T05:06:28.049Z,51.215912
2023-01-13T05:07:28.049Z,51.216087
2023-01-13T05:08:28.046Z,51.216057
2023-01-13T05:09:28.038Z,51.215984
2023-01-13T05:10:28.053Z,51.216053
2023-01-13T05:11:28.019Z,51.216042
2023-01-13T05:12:28.008Z,51.216038
2023-01-13T05:13:28.007Z,51.215939
2023-01-13T05:14:28.012Z,51.216133
2023-01-13T05:15:27.987Z,51.216118
2023-01-13T05:16:28.024Z,51.216068
2023-01-13T05:17:27.987Z,51.215969
2023-01-13T05:18:27.967Z,51.215912
2023-01-13T05:19:27.955Z,51.215916
2023-01-13T05:20:27.958Z,51.215988
2023-01-13T05:21:27.959Z,51.216000
2023-01-13T05:22:27.933Z,51.215942
2023-01-13T05:23:27.934Z,51.216022
2023-01-13T05:24:27.910Z,51.216003
2023-01-13T05:25:27.921Z,51.215893
2023-01-13T05:26:27.978Z,51.215958
2023-01-13T05:27:27.908Z,51.215954
2023-01-13T05:28:27.923Z,51.215950
2023-01-13T05:29:27.884Z,51.215862
2023-01-13T05:30:27.875Z,51.215935
2023-01-13T05:31:27.893Z,51.216015
2023-01-13T05:32:27.886Z,51.216068
2023-01-13T05:33:27.847Z,51.216053
2023-01-13T05:34:27.834Z,51.215958
2023-01-13T05:35:27.833Z,51.215897
2023-01-13T05:36:27.822Z,51.215801
2023-01-13T05:37:27.846Z,51.215904
2023-01-13T05:38:27.815Z,51.215984
2023-01-13T05:39:27.809Z,51.216118
2023-01-13T05:40:27.808Z,51.216179
2023-01-13T05:41:27.795Z,51.216118
2023-01-13T05:42:27.803Z,51.216103
2023-01-13T05:43:27.771Z,51.216045
2023-01-13T05:44:27.776Z,51.216061
2023-01-13T05:45:27.762Z,51.216164
2023-01-13T05:46:27.790Z,51.216217
2023-01-13T05:47:27.757Z,51.216122
2023-01-13T05:48:27.775Z,51.216022
2023-01-13T05:49:27.742Z,51.215981
2023-01-13T05:50:27.727Z,51.216068
2023-01-13T05:51:27.725Z,51.216011
2023-01-13T05:52:27.715Z,51.216106
2023-01-13T05:53:27.731Z,51.216152
2023-01-13T05:54:27.695Z,51.216152
2023-01-13T05:55:27.691Z,51.216080
2023-01-13T05:56:27.692Z,51.215984
2023-01-13T05:57:27.683Z,51.216022
2023-01-13T05:58:27.669Z,51.216049
2023-01-13T05:59:27.668Z,51.216106
2023-01-13T06:00:27.657Z,51.216095
2023-01-13T06:01:27.714Z,51.216148
2023-01-13T06:02:27.654Z,51.216156
2023-01-13T06:03:27.641Z,51.216099
2023-01-13T06:04:27.670Z,51.216019
2023-01-13T06:05:27.641Z,51.216091
2023-01-13T06:06:27.627Z,51.215836
2023-01-13T06:07:27.620Z,51.216061
2023-01-13T06:08:27.603Z,51.216049
2023-01-13T06:09:27.617Z,51.216255
2023-01-13T06:10:27.613Z,51.216152
2023-01-13T06:11:27.583Z,51.216061
2023-01-13T06:12:27.585Z,51.216125
2023-01-13T06:13:27.581Z,51.216122
2023-01-13T06:14:27.578Z,51.216183
2023-01-13T06:15:27.570Z,51.216145
2023-01-13T06:16:27.581Z,51.216171
2023-01-13T06:17:27.547Z,51.216171
2023-01-13T06:18:27.599Z,51.216187
2023-01-13T06:19:27.539Z,51.216148
2023-01-13T06:20:27.542Z,51.216232
2023-01-13T06:21:27.517Z,51.216156
2023-01-13T06:22:27.520Z,51.215992
2023-01-13T06:23:27.511Z,51.215874
2023-01-13T06:24:27.486Z,51.215847
2023-01-13T06:25:30.498Z,51.215820
2023-01-13T06:26:27.488Z,51.215893
2023-01-13T06:27:27.502Z,51.215843
2023-01-13T06:28:27.498Z,51.215752
2023-01-13T06:29:27.462Z,51.215714
2023-01-13T06:30:27.460Z,51.215889
2023-01-13T06:31:27.518Z,51.215851
2023-01-13T06:32:27.499Z,51.215714
2023-01-13T06:33:27.456Z,51.215466
2023-01-13T06:34:27.445Z,51.215771
2023-01-13T06:35:27.435Z,51.215748
2023-01-13T06:36:27.433Z,51.215649
2023-01-13T06:37:27.416Z,51.215572
2023-01-13T06:38:27.421Z,51.215595
2023-01-13T06:39:27.432Z,51.215672
2023-01-13T06:40:27.403Z,51.215683
2023-01-13T06:41:27.388Z,51.215725
2023-01-13T06:42:27.384Z,51.215660
2023-01-13T06:43:27.381Z,51.215919
2023-01-13T06:44:27.381Z,51.216125
2023-01-13T06:45:27.374Z,51.216015
2023-01-13T06:46:27.391Z,51.216030
2023-01-13T06:47:27.365Z,51.216011
2023-01-13T06:48:27.358Z,51.216030
2023-01-13T06:49:27.363Z,51.216049
2023-01-13T06:50:27.343Z,51.216125
2023-01-13T06:51:27.408Z,51.216152
2023-01-13T06:52:27.312Z,51.216255
2023-01-13T06:53:27.320Z,51.215988
2023-01-13T06:54:27.904Z,51.216099
2023-01-13T06:55:28.293Z,51.216141
2023-01-13T06:56:27.316Z,51.216106
2023-01-13T06:57:27.295Z,51.216125
2023-01-13T06:58:27.286Z,51.216343
2023-01-13T06:59:27.286Z,51.216160
2023-01-13T07:00:27.271Z,51.216206
2023-01-13T07:01:27.378Z,51.216122
2023-01-13T07:02:27.314Z,51.216156
2023-01-13T07:03:27.262Z,51.215897
2023-01-13T07:04:27.251Z,51.216137
2023-01-13T07:05:27.220Z,51.215923
2023-01-13T07:06:27.218Z,51.215977
2023-01-13T07:07:27.226Z,51.216148
2023-01-13T07:08:27.239Z,51.216053
2023-01-13T07:09:27.196Z,51.216251
2023-01-13T07:10:27.200Z,51.216183
2023-01-13T07:11:27.203Z,51.216114
2023-01-13T07:12:27.179Z,51.215942
2023-01-13T07:13:27.171Z,51.215801
2023-01-13T07:14:27.191Z,51.215866
2023-01-13T07:15:27.165Z,51.215847
2023-01-13T07:16:27.217Z,51.215908
2023-01-13T07:17:27.156Z,51.215923
2023-01-13T07:18:27.146Z,51.215897
2023-01-13T07:19:27.153Z,51.215889
2023-01-13T07:20:27.165Z,51.215778
2023-01-13T07:21:27.293Z,51.216015
2023-01-13T07:22:27.115Z,51.216125
2023-01-13T07:23:27.123Z,51.216324
2023-01-13T07:24:27.121Z,51.216221
2023-01-13T07:25:27.106Z,51.216133
2023-01-13T07:26:27.083Z,51.216026
2023-01-13T07:27:27.072Z,51.216011
2023-01-13T07:28:27.083Z,51.216095
2023-01-13T07:29:27.120Z,51.216179
2023-01-13T07:30:27.069Z,51.216026
2023-01-13T07:31:27.083Z,51.216019
2023-01-13T07:32:27.045Z,51.216106
2023-01-13T07:33:27.039Z,51.216297
2023-01-13T07:34:27.042Z,51.216347
2023-01-13T07:35:27.044Z,51.216145
2023-01-13T07:36:27.030Z,51.216274
2023-01-13T07:37:27.019Z,51.216160
2023-01-13T07:38:27.015Z,51.215935
2023-01-13T07:39:27.003Z,51.215752
2023-01-13T07:40:27.021Z,51.215752
2023-01-13T07:41:27.005Z,51.216084
2023-01-13T07:42:26.974Z,51.216099
2023-01-13T07:43:26.968Z,51.216000
2023-01-13T07:44:26.977Z,51.216057
2023-01-13T07:45:26.996Z,51.216080
2023-01-13T07:46:26.967Z,51.216145
2023-01-13T07:47:26.948Z,51.216187
2023-01-13T07:48:26.949Z,51.216068
2023-01-13T07:49:26.940Z,51.216042
2023-01-13T07:50:26.924Z,51.216015
2023-01-13T07:51:26.937Z,51.216068
2023-01-13T07:52:26.980Z,51.216103
2023-01-13T07:53:26.904Z,51.216091
2023-01-13T07:54:39.813Z,51.216240
2023-01-13T07:55:28.908Z,51.216179
2023-01-13T07:56:26.919Z,51.216228
2023-01-13T07:57:26.912Z,51.216209
2023-01-13T07:58:26.879Z,51.216183
2023-01-13T07:59:26.871Z,51.216072
2023-01-13T08:00:26.949Z,51.216179
2023-01-13T08:01:26.949Z,51.216003
2023-01-13T08:02:27.040Z,51.216145
2023-01-13T08:03:26.850Z,51.216160
2023-01-13T08:04:26.851Z,51.216068
2023-01-13T08:05:26.836Z,51.216133
2023-01-13T08:06:26.832Z,51.216171
2023-01-13T08:07:26.825Z,51.215988
2023-01-13T08:08:26.814Z,51.216038
2023-01-13T08:09:26.821Z,51.216122
2023-01-13T08:10:26.815Z,51.216042
2023-01-13T08:11:26.804Z,51.216148
2023-01-13T08:12:26.788Z,51.215996
2023-01-13T08:13:27.796Z,51.216045
2023-01-13T08:14:26.767Z,51.216003
2023-01-13T08:15:26.766Z,51.215897
2023-01-13T08:16:26.858Z,51.216019
2023-01-13T08:17:26.775Z,51.215961
2023-01-13T08:18:26.751Z,51.215935
2023-01-13T08:19:26.744Z,51.216030
2023-01-13T08:20:26.740Z,51.216061
2023-01-13T08:21:26.733Z,51.215996
2023-01-13T08:22:26.733Z,51.216011
2023-01-13T08:23:26.721Z,51.216087
2023-01-13T08:24:26.718Z,51.216057
2023-01-13T08:25:26.700Z,51.216095
2023-01-13T08:26:26.696Z,51.216068
2023-01-13T08:27:26.697Z,51.216057
2023-01-13T08:28:26.705Z,51.216042
2023-01-13T08:29:26.670Z,51.216076
2023-01-13T08:30:26.702Z,51.215874
2023-01-13T08:31:26.658Z,51.215954
2023-01-13T08:32:26.660Z,51.216022
2023-01-13T08:33:27.646Z,51.215958
2023-01-13T08:34:26.633Z,51.216064
2023-01-13T08:35:26.660Z,51.215965
2023-01-13T08:36:26.646Z,51.215771
2023-01-13T08:37:26.618Z,51.215824
2023-01-13T08:38:26.646Z,51.215874
2023-01-13T08:39:26.607Z,51.215969
2023-01-13T08:40:26.614Z,51.215946
2023-01-13T08:41:26.591Z,51.215904
2023-01-13T08:42:26.603Z,51.216045
2023-01-13T08:43:26.603Z,51.216232
2023-01-13T08:44:26.572Z,51.216202
2023-01-13T08:45:26.564Z,51.216045
2023-01-13T08:46:26.572Z,51.216129
2023-01-13T08:47:26.555Z,51.216145
2023-01-13T08:48:26.558Z,51.215973
2023-01-13T08:49:26.532Z,51.216034
2023-01-13T08:50:26.539Z,51.215912
2023-01-13T08:51:26.524Z,51.215942
2023-01-13T08:52:26.532Z,51.216118
2023-01-13T08:53:26.525Z,51.216042
2023-01-13T08:54:26.519Z,51.216156
2023-01-13T08:55:26.497Z,51.216038
2023-01-13T08:56:26.491Z,51.215961
2023-01-13T08:57:26.565Z,51.216110
2023-01-13T08:58:26.485Z,51.215595
2023-01-13T08:59:26.480Z,51.215801
2023-01-13T09:00:26.476Z,51.215981
2023-01-13T09:01:26.536Z,51.216263
2023-01-13T09:02:26.565Z,51.216045
2023-01-13T09:03:26.468Z,51.216061
2023-01-13T09:04:26.480Z,51.216129
2023-01-13T09:05:26.424Z,51.216087
2023-01-13T09:06:26.418Z,51.216137
2023-01-13T09:07:26.423Z,51.216259
2023-01-13T09:08:26.408Z,51.216114
2023-01-13T09:09:26.408Z,51.216042
2023-01-13T09:10:26.393Z,51.216000
2023-01-13T09:11:26.391Z,51.216129
2023-01-13T09:12:26.390Z,51.216103
2023-01-13T09:13:26.396Z,51.215900
2023-01-13T09:14:26.368Z,51.215790
2023-01-13T09:15:26.532Z,51.215576
2023-01-13T09:16:26.352Z,51.215378
2023-01-13T09:17:26.350Z,51.215614
2023-01-13T09:18:26.341Z,51.215710
2023-01-13T09:19:26.335Z,51.215904
2023-01-13T09:20:26.331Z,51.215950
2023-01-13T09:21:26.319Z,51.215946
2023-01-13T09:22:26.325Z,51.215977
2023-01-13T09:23:26.301Z,51.215939
2023-01-13T09:24:26.310Z,51.215977
2023-01-13T09:25:26.305Z,51.216053
2023-01-13T09:26:27.287Z,51.216030
2023-01-13T09:27:26.281Z,51.215839
2023-01-13T09:28:26.269Z,51.215912
2023-01-13T09:29:26.260Z,51.216042
2023-01-13T09:30:26.263Z,51.216179
2023-01-13T09:31:27.281Z,51.216064
2023-01-13T09:32:26.237Z,51.215862
2023-01-13T09:33:26.229Z,51.216076
2023-01-13T09:34:26.250Z,51.215805
2023-01-13T09:35:26.212Z,51.215797
2023-01-13T09:36:26.224Z,51.215923
2023-01-13T09:37:26.201Z,51.215904
2023-01-13T09:38:26.191Z,51.215950
2023-01-13T09:39:26.176Z,51.215992
2023-01-13T09:40:26.181Z,51.216057
2023-01-13T09:41:26.188Z,51.215977
2023-01-13T09:42:26.460Z,51.216034
2023-01-13T09:43:26.157Z,51.216072
2023-01-13T09:44:26.154Z,51.216011
2023-01-13T09:45:26.184Z,51.216110
2023-01-13T09:46:26.196Z,51.216236
2023-01-13T09:47:26.131Z,51.216213
2023-01-13T09:48:26.123Z,51.216114
2023-01-13T09:49:26.115Z,51.216148
2023-01-13T09:50:26.123Z,51.216160
2023-01-13T09:51:26.150Z,51.216049
2023-01-13T09:52:27.149Z,51.216122
2023-01-13T09:53:27.084Z,51.216270
2023-01-13T09:54:26.104Z,51.216232
2023-01-13T09:55:26.076Z,51.216213
2023-01-13T09:56:26.076Z,51.216282
2023-01-13T09:57:26.085Z,51.216454
2023-01-13T09:58:26.064Z,51.216431
2023-01-13T10:47:27.875Z,51.216854
2023-01-13T10:48:27.882Z,51.217018
2023-01-13T10:49:27.877Z,51.217045
2023-01-13T10:50:27.859Z,51.216980
2023-01-13T10:51:27.872Z,51.216446
2023-01-13T10:52:27.933Z,51.216240
2023-01-13T10:53:27.841Z,51.216148
2023-01-13T10:54:27.839Z,51.216015
2023-01-13T10:55:27.836Z,51.215996
2023-01-13T10:56:27.851Z,51.216095
2023-01-13T10:57:27.834Z,51.216080
2023-01-13T10:58:27.816Z,51.216034
2023-01-13T10:59:27.795Z,51.216091
2023-01-13T11:00:27.794Z,51.216125
2023-01-13T11:01:28.233Z,51.216164
2023-01-13T11:02:27.924Z,51.216240
2023-01-13T11:03:27.786Z,51.216156
2023-01-13T11:04:27.805Z,51.216145
2023-01-13T11:05:27.756Z,51.216141
2023-01-13T11:06:27.826Z,51.216198
2023-01-13T11:07:28.463Z,51.216129
2023-01-13T11:08:28.732Z,51.216015
2023-01-13T11:09:27.732Z,51.216141
2023-01-13T11:10:27.724Z,51.216133
2023-01-13T11:11:27.719Z,51.216175
2023-01-13T11:12:27.720Z,51.215992
2023-01-13T11:13:27.727Z,51.215977
2023-01-13T11:14:27.708Z,51.216095
2023-01-13T11:15:27.687Z,51.216034
2023-01-13T11:16:27.712Z,51.216057
2023-01-13T11:17:27.681Z,51.216152
2023-01-13T11:18:27.692Z,51.216202
2023-01-13T11:19:27.668Z,51.216129
2023-01-13T11:20:27.657Z,51.216125
2023-01-13T11:21:27.646Z,51.216114
2023-01-13T11:22:27.674Z,51.216076
2023-01-13T11:23:27.701Z,51.216110
2023-01-13T11:24:28.619Z,51.216095
2023-01-13T11:25:27.663Z,51.216129
2023-01-13T11:26:27.621Z,51.216156
2023-01-13T11:27:27.612Z,51.216064
2023-01-13T11:28:27.607Z,51.216122
2023-01-13T11:29:27.585Z,51.216129
2023-01-13T11:30:27.607Z,51.216125
2023-01-13T11:31:27.652Z,51.216103
2023-01-13T11:32:27.576Z,51.216114
2023-01-13T11:33:27.559Z,51.216084
2023-01-13T11:34:27.559Z,51.216099
2023-01-13T11:35:27.573Z,51.216084
2023-01-13T11:36:27.545Z,51.216175
2023-01-13T11:37:27.541Z,51.216194
2023-01-13T11:38:27.534Z,51.216152
2023-01-13T11:39:27.516Z,51.216057
2023-01-13T11:40:27.520Z,51.216110
2023-01-13T11:41:27.504Z,51.216179
2023-01-13T11:42:27.587Z,51.216095
2023-01-13T11:43:27.505Z,51.216011
2023-01-13T11:44:27.485Z,51.216053
2023-01-13T11:45:27.495Z,51.216030
2023-01-13T11:46:27.508Z,51.216049
2023-01-13T11:47:27.476Z,51.216000
2023-01-13T11:48:27.455Z,51.216034
2023-01-13T11:49:27.447Z,51.215988
2023-01-13T11:50:27.436Z,51.215958
2023-01-13T11:51:27.440Z,51.216011
2023-01-13T11:52:27.429Z,51.216053
2023-01-13T11:53:27.421Z,51.216053
2023-01-13T11:54:27.445Z,51.216152
2023-01-13T11:55:27.425Z,51.216145
2023-01-13T11:56:27.428Z,51.216076
2023-01-13T11:57:27.402Z,51.216106
2023-01-13T11:58:28.084Z,51.216106
2023-01-13T11:59:27.376Z,51.216099
2023-01-13T12:00:27.357Z,51.216084
2023-01-13T12:01:27.473Z,51.216095
2023-01-13T12:02:27.473Z,51.216103
2023-01-13T12:03:27.414Z,51.216087
2023-01-13T12:04:27.348Z,51.216145
2023-01-13T12:05:27.336Z,51.216175
2023-01-13T12:06:27.368Z,51.216125
2023-01-13T12:07:27.327Z,51.216015
2023-01-13T12:08:27.316Z,51.216045
2023-01-13T12:09:27.321Z,51.216129
2023-01-13T12:10:27.302Z,51.216137
2023-01-13T12:11:27.277Z,51.216206
2023-01-13T12:12:27.277Z,51.216171